Flight Track Log - Related Links

Times and Time Zones

All times are in EST time to prevent confusion due to time zone crossing. See the N1926A flight status page for this flight to view local times or setup timezone preferences in your user account.


Time Position Orientation Groundspeed Altitude Reporting Facility
EST Latitude Longitude Course Direction KTS MPH feet Rate Location/Type
Wed 07:57:38 PM 42.1108 -87.8700 44° Northeast 175 201 2,000  Level Chicago Center
Wed 07:58:40 PM 42.1622 -87.8042 44° Northeast 211 243 4,700 2,286 Climbing Chicago Center
Wed 07:59:44 PM 42.1775 -87.8303 308° West 134 154 6,800 1,952 Climbing Chicago Center
Wed 08:00:46 PM 42.1544 -87.8486 211° Southwest 154 177 8,800 1,887 Climbing Chicago Center
Wed 08:01:48 PM 42.1086 -87.8311 164° South 169 194 10,700 1,887 Climbing Chicago Center
Wed 08:02:50 PM 42.0622 -87.8203 170° South 170 196 12,700 1,113 Climbing Chicago Center
Wed 08:03:52 PM 41.9872 -87.8122 175° South 239 275 13,000 145 Climbing Chicago Center
Wed 08:04:54 PM 41.9122 -87.8056 176° South 268 308 13,000  Level Chicago Center
Wed 08:05:56 PM 41.8369 -87.7925 173° South 272 313 13,000  Level Chicago Center
Wed 08:06:58 PM 41.7631 -87.7547 159° South 283 326 13,000  Level Chicago Center
Wed 08:08:00 PM 41.6914 -87.7164 158° South 278 320 13,000  Level Chicago Center
Wed 08:09:03 PM 41.6186 -87.6750 157° South 282 325 13,000  Level Chicago Center
Wed 08:10:05 PM 41.5328 -87.6242 156° South 280 322 13,000  Level Chicago Center
Wed 08:11:07 PM 41.4608 -87.5839 157° South 279 321 13,000  Level Chicago Center
Wed 08:12:09 PM 41.3900 -87.5397 155° Southeast 280 322 13,000 242 Level Chicago Center
Wed 08:13:11 PM 41.3189 -87.4969 156° South 280 322 13,500 484 Climbing Chicago Center
Wed 08:14:13 PM 41.2511 -87.4603 158° South 270 311 14,000 581 Climbing Chicago Center
Wed 08:15:15 PM 41.1836 -87.4236 158° South 265 305 14,700 435 Climbing Chicago Center
Wed 08:16:17 PM 41.1172 -87.3911 160° South 257 296 14,900 97 Climbing Chicago Center
Wed 08:17:19 PM 41.0303 -87.3467 159° South 272 313 14,900 48 Level Chicago Center
Wed 08:18:21 PM 40.9578 -87.3081 158° South 281 323 15,000 48 Climbing Chicago Center
Wed 08:19:23 PM 40.8856 -87.2672 157° South 283 326 15,000  Level Chicago Center
Wed 08:20:26 PM 40.8125 -87.2261 157° South 285 328 15,000  Level Chicago Center
Wed 08:21:28 PM 40.7403 -87.1847 157° South 284 327 15,000  Level Chicago Center
Wed 08:22:30 PM 40.6531 -87.1361 157° South 284 327 15,000 -242 Level Chicago Center
Wed 08:23:32 PM 40.5789 -87.0967 158° South 287 330 14,500 -677 Descending Chicago Center
Wed 08:24:34 PM 40.4997 -87.0556 158° South 302 348 13,600 -677 Descending Chicago Center
Wed 08:25:36 PM 40.4219 -87.0153 158° South 303 349 13,100 -290 Descending Chicago Center
Wed 08:26:38 PM 40.3475 -86.9758 158° South 293 337 13,000 -48 Descending Chicago Center
Wed 08:27:40 PM 40.2747 -86.9361 157° South 284 327 13,000  Level Chicago Center
Wed 08:28:42 PM 40.2072 -86.8572 138° Southeast 279 321 13,000 -97 Level Chicago Center
Wed 08:29:44 PM 40.1594 -86.7767 128° Southeast 279 321 12,800 -532 Descending Chicago Center
Wed 08:30:46 PM 40.1156 -86.6958 125° Southeast 282 325 11,900 -1,248 Descending Chicago Center
Wed 08:31:49 PM 40.0678 -86.6075 125° Southeast 293 337 10,200 -1,776 Descending Chicago Center
Wed 08:32:51 PM 40.0142 -86.5175 128° Southeast 308 354 8,200 -1,880 Descending Chicago Center
Wed 08:34:35 PM 39.9167 -86.3667 130° Southeast 257 296 5,000 -1,747 Descending Indianapolis TRACON
Wed 08:35:29 PM 39.8833 -86.3000 123° Southeast 236 272 3,600 -1,053 Descending Indianapolis TRACON
Wed 08:36:29 PM 39.8333 -86.2333 134° Southeast 210 242 3,000 -650 Descending Indianapolis TRACON
Wed 08:37:29 PM 39.8000 -86.2167 159° South 153 176 2,300 -500 Descending Indianapolis TRACON
Wed 08:38:29 PM 39.7667 -86.2333 201° Southwest 116 133 2,000 -429 Descending Indianapolis TRACON
Wed 08:39:35 PM 39.7500 -86.2667 237° Southwest 104 120 1,400 -545 Descending Indianapolis TRACON
Wed 08:41:00 PM 39.7167 -86.2833 142° Southeast  Level FlightAware Approximate
Wed 08:48:00 PM 39.7173 -86.2947 142° Southeast  Level Estimated

Login

Don't have an account? Register now (free) for customized features, flight alerts, and more!